sensor_id;sensor_type;location;lat;lon;timestamp;P1;durP1;ratioP1;P2;durP2;ratioP2
66118;SDS011;52912;48.564;9.302;2022-07-10T00:01:21;6.82;;;3.00;;
66118;SDS011;52912;48.564;9.302;2022-07-10T00:03:47;3.22;;;2.70;;
66118;SDS011;52912;48.564;9.302;2022-07-10T00:06:12;5.20;;;2.70;;
66118;SDS011;52912;48.564;9.302;2022-07-10T00:08:38;4.05;;;2.67;;
66118;SDS011;52912;48.564;9.302;2022-07-10T00:11:03;5.60;;;2.75;;
66118;SDS011;52912;48.564;9.302;2022-07-10T00:13:29;4.03;;;2.60;;
66118;SDS011;52912;48.564;9.302;2022-07-10T00:15:55;4.10;;;2.70;;
66118;SDS011;52912;48.564;9.302;2022-07-10T00:18:22;4.88;;;2.90;;
66118;SDS011;52912;48.564;9.302;2022-07-10T00:20:47;5.07;;;2.90;;
66118;SDS011;52912;48.564;9.302;2022-07-10T00:23:13;3.67;;;2.67;;
66118;SDS011;52912;48.564;9.302;2022-07-10T00:25:38;4.72;;;2.67;;
66118;SDS011;52912;48.564;9.302;2022-07-10T00:28:04;6.07;;;2.65;;
66118;SDS011;52912;48.564;9.302;2022-07-10T00:30:29;3.75;;;2.63;;
66118;SDS011;52912;48.564;9.302;2022-07-10T00:32:55;3.97;;;2.65;;
66118;SDS011;52912;48.564;9.302;2022-07-10T00:35:22;5.60;;;2.70;;
66118;SDS011;52912;48.564;9.302;2022-07-10T00:37:51;4.75;;;2.90;;
66118;SDS011;52912;48.564;9.302;2022-07-10T00:40:16;4.38;;;2.70;;
66118;SDS011;52912;48.564;9.302;2022-07-10T00:42:42;3.67;;;2.60;;
66118;SDS011;52912;48.564;9.302;2022-07-10T00:45:10;3.22;;;2.55;;
66118;SDS011;52912;48.564;9.302;2022-07-10T00:47:36;4.50;;;2.50;;
66118;SDS011;52912;48.564;9.302;2022-07-10T00:50:02;4.22;;;2.72;;
66118;SDS011;52912;48.564;9.302;2022-07-10T00:52:29;5.15;;;2.92;;
66118;SDS011;52912;48.564;9.302;2022-07-10T00:54:55;5.00;;;2.65;;
66118;SDS011;52912;48.564;9.302;2022-07-10T00:57:22;5.95;;;2.70;;
66118;SDS011;52912;48.564;9.302;2022-07-10T00:59:48;5.53;;;2.60;;
66118;SDS011;52912;48.564;9.302;2022-07-10T01:02:14;6.45;;;2.90;;
66118;SDS011;52912;48.564;9.302;2022-07-10T01:04:44;4.38;;;2.65;;
66118;SDS011;52912;48.564;9.302;2022-07-10T01:07:09;3.92;;;2.80;;
66118;SDS011;52912;48.564;9.302;2022-07-10T01:09:36;6.63;;;3.00;;
66118;SDS011;52912;48.564;9.302;2022-07-10T01:12:03;5.30;;;3.03;;
66118;SDS011;52912;48.564;9.302;2022-07-10T01:14:29;5.55;;;3.10;;
66118;SDS011;52912;48.564;9.302;2022-07-10T01:16:55;3.47;;;2.67;;
66118;SDS011;52912;48.564;9.302;2022-07-10T01:19:21;3.92;;;2.60;;
66118;SDS011;52912;48.564;9.302;2022-07-10T01:21:48;5.70;;;3.00;;
66118;SDS011;52912;48.564;9.302;2022-07-10T01:24:13;5.68;;;2.90;;
66118;SDS011;52912;48.564;9.302;2022-07-10T01:26:39;4.60;;;2.85;;
66118;SDS011;52912;48.564;9.302;2022-07-10T01:29:05;4.68;;;3.15;;
66118;SDS011;52912;48.564;9.302;2022-07-10T01:31:31;3.80;;;2.80;;
66118;SDS011;52912;48.564;9.302;2022-07-10T01:33:58;5.43;;;3.00;;
66118;SDS011;52912;48.564;9.302;2022-07-10T01:36:24;4.63;;;3.10;;
66118;SDS011;52912;48.564;9.302;2022-07-10T01:38:54;4.50;;;2.80;;
66118;SDS011;52912;48.564;9.302;2022-07-10T01:41:22;4.65;;;3.10;;
66118;SDS011;52912;48.564;9.302;2022-07-10T01:43:48;4.38;;;3.00;;
66118;SDS011;52912;48.564;9.302;2022-07-10T01:46:14;5.10;;;3.28;;
66118;SDS011;52912;48.564;9.302;2022-07-10T01:48:40;4.05;;;3.08;;
66118;SDS011;52912;48.564;9.302;2022-07-10T01:51:07;4.88;;;2.95;;
66118;SDS011;52912;48.564;9.302;2022-07-10T01:53:35;4.65;;;3.22;;
66118;SDS011;52912;48.564;9.302;2022-07-10T01:56:02;4.40;;;3.13;;
66118;SDS011;52912;48.564;9.302;2022-07-10T01:58:32;4.15;;;3.03;;
66118;SDS011;52912;48.564;9.302;2022-07-10T02:00:57;4.05;;;3.10;;
66118;SDS011;52912;48.564;9.302;2022-07-10T02:03:23;4.82;;;3.20;;
66118;SDS011;52912;48.564;9.302;2022-07-10T02:05:49;6.00;;;3.20;;
66118;SDS011;52912;48.564;9.302;2022-07-10T02:08:14;5.25;;;3.20;;
66118;SDS011;52912;48.564;9.302;2022-07-10T02:10:40;4.53;;;3.13;;
66118;SDS011;52912;48.564;9.302;2022-07-10T02:13:07;5.53;;;3.05;;
66118;SDS011;52912;48.564;9.302;2022-07-10T02:15:32;4.38;;;3.05;;
66118;SDS011;52912;48.564;9.302;2022-07-10T02:17:58;4.22;;;2.92;;
66118;SDS011;52912;48.564;9.302;2022-07-10T02:20:23;7.47;;;3.50;;
66118;SDS011;52912;48.564;9.302;2022-07-10T02:22:49;4.95;;;3.08;;
66118;SDS011;52912;48.564;9.302;2022-07-10T02:25:15;4.50;;;2.80;;
66118;SDS011;52912;48.564;9.302;2022-07-10T02:27:40;5.05;;;3.30;;
66118;SDS011;52912;48.564;9.302;2022-07-10T02:30:07;5.72;;;3.20;;
66118;SDS011;52912;48.564;9.302;2022-07-10T02:32:35;5.15;;;3.47;;
66118;SDS011;52912;48.564;9.302;2022-07-10T02:35:01;6.18;;;3.00;;
66118;SDS011;52912;48.564;9.302;2022-07-10T02:37:27;4.85;;;3.33;;
66118;SDS011;52912;48.564;9.302;2022-07-10T02:39:52;4.43;;;3.00;;
66118;SDS011;52912;48.564;9.302;2022-07-10T02:42:18;4.72;;;3.30;;
66118;SDS011;52912;48.564;9.302;2022-07-10T02:44:43;4.43;;;3.13;;
66118;SDS011;52912;48.564;9.302;2022-07-10T02:47:10;3.85;;;3.10;;
66118;SDS011;52912;48.564;9.302;2022-07-10T02:49:36;6.65;;;3.30;;
66118;SDS011;52912;48.564;9.302;2022-07-10T02:52:01;5.82;;;3.30;;
66118;SDS011;52912;48.564;9.302;2022-07-10T02:54:27;6.63;;;3.20;;
66118;SDS011;52912;48.564;9.302;2022-07-10T02:56:53;5.53;;;3.45;;
66118;SDS011;52912;48.564;9.302;2022-07-10T02:59:18;8.20;;;3.30;;
66118;SDS011;52912;48.564;9.302;2022-07-10T03:01:44;5.68;;;3.30;;
66118;SDS011;52912;48.564;9.302;2022-07-10T03:04:11;5.60;;;3.33;;
66118;SDS011;52912;48.564;9.302;2022-07-10T03:06:36;5.93;;;3.83;;
66118;SDS011;52912;48.564;9.302;2022-07-10T03:09:02;6.93;;;4.15;;
66118;SDS011;52912;48.564;9.302;2022-07-10T03:11:28;5.50;;;4.05;;
66118;SDS011;52912;48.564;9.302;2022-07-10T03:13:57;7.38;;;4.28;;
66118;SDS011;52912;48.564;9.302;2022-07-10T03:16:22;7.30;;;4.20;;
66118;SDS011;52912;48.564;9.302;2022-07-10T03:18:48;5.85;;;3.83;;
66118;SDS011;52912;48.564;9.302;2022-07-10T03:21:14;5.55;;;4.20;;
66118;SDS011;52912;48.564;9.302;2022-07-10T03:23:40;6.50;;;4.70;;
66118;SDS011;52912;48.564;9.302;2022-07-10T03:26:05;8.05;;;5.10;;
66118;SDS011;52912;48.564;9.302;2022-07-10T03:28:31;8.32;;;5.50;;
66118;SDS011;52912;48.564;9.302;2022-07-10T03:30:57;7.00;;;5.30;;
66118;SDS011;52912;48.564;9.302;2022-07-10T03:33:22;8.32;;;5.75;;
66118;SDS011;52912;48.564;9.302;2022-07-10T03:35:48;9.65;;;6.45;;
66118;SDS011;52912;48.564;9.302;2022-07-10T03:38:15;9.88;;;6.35;;
66118;SDS011;52912;48.564;9.302;2022-07-10T03:40:40;9.25;;;6.20;;
66118;SDS011;52912;48.564;9.302;2022-07-10T03:43:06;12.68;;;6.55;;
66118;SDS011;52912;48.564;9.302;2022-07-10T03:45:31;11.00;;;6.25;;
66118;SDS011;52912;48.564;9.302;2022-07-10T03:47:57;9.60;;;5.70;;
66118;SDS011;52912;48.564;9.302;2022-07-10T03:50:22;9.88;;;6.78;;
66118;SDS011;52912;48.564;9.302;2022-07-10T03:52:48;10.38;;;6.50;;
66118;SDS011;52912;48.564;9.302;2022-07-10T03:55:15;9.95;;;6.97;;
66118;SDS011;52912;48.564;9.302;2022-07-10T03:57:40;8.80;;;6.75;;
66118;SDS011;52912;48.564;9.302;2022-07-10T04:00:07;9.27;;;6.30;;
66118;SDS011;52912;48.564;9.302;2022-07-10T04:02:33;11.73;;;6.75;;
66118;SDS011;52912;48.564;9.302;2022-07-10T04:04:58;9.20;;;6.40;;
66118;SDS011;52912;48.564;9.302;2022-07-10T04:07:24;9.20;;;7.25;;
66118;SDS011;52912;48.564;9.302;2022-07-10T04:09:49;8.07;;;6.65;;
66118;SDS011;52912;48.564;9.302;2022-07-10T04:12:16;8.60;;;6.65;;
66118;SDS011;52912;48.564;9.302;2022-07-10T04:14:42;11.00;;;6.60;;
66118;SDS011;52912;48.564;9.302;2022-07-10T04:17:07;8.77;;;6.28;;
66118;SDS011;52912;48.564;9.302;2022-07-10T04:19:33;10.02;;;6.28;;
66118;SDS011;52912;48.564;9.302;2022-07-10T04:21:58;13.32;;;7.15;;
66118;SDS011;52912;48.564;9.302;2022-07-10T04:24:24;8.73;;;6.22;;
66118;SDS011;52912;48.564;9.302;2022-07-10T04:26:50;9.15;;;5.88;;
66118;SDS011;52912;48.564;9.302;2022-07-10T04:29:17;7.85;;;5.65;;
66118;SDS011;52912;48.564;9.302;2022-07-10T04:31:42;10.82;;;5.88;;
66118;SDS011;52912;48.564;9.302;2022-07-10T04:34:08;10.80;;;5.68;;
66118;SDS011;52912;48.564;9.302;2022-07-10T04:36:33;7.55;;;5.88;;
66118;SDS011;52912;48.564;9.302;2022-07-10T04:38:59;9.77;;;5.97;;
66118;SDS011;52912;48.564;9.302;2022-07-10T04:41:24;7.25;;;5.72;;
66118;SDS011;52912;48.564;9.302;2022-07-10T04:43:50;7.93;;;6.20;;
66118;SDS011;52912;48.564;9.302;2022-07-10T04:46:17;9.75;;;6.07;;
66118;SDS011;52912;48.564;9.302;2022-07-10T04:48:42;8.95;;;6.07;;
66118;SDS011;52912;48.564;9.302;2022-07-10T04:51:08;10.55;;;6.95;;
66118;SDS011;52912;48.564;9.302;2022-07-10T04:53:33;8.82;;;6.18;;
66118;SDS011;52912;48.564;9.302;2022-07-10T04:55:59;9.02;;;6.00;;
66118;SDS011;52912;48.564;9.302;2022-07-10T04:58:24;9.93;;;6.30;;
66118;SDS011;52912;48.564;9.302;2022-07-10T05:00:50;10.00;;;5.78;;
66118;SDS011;52912;48.564;9.302;2022-07-10T05:03:17;8.50;;;5.72;;
66118;SDS011;52912;48.564;9.302;2022-07-10T05:05:43;9.40;;;6.38;;
66118;SDS011;52912;48.564;9.302;2022-07-10T05:08:08;9.45;;;6.78;;
66118;SDS011;52912;48.564;9.302;2022-07-10T05:10:34;8.57;;;5.47;;
66118;SDS011;52912;48.564;9.302;2022-07-10T05:12:59;8.60;;;5.78;;
66118;SDS011;52912;48.564;9.302;2022-07-10T05:15:25;8.93;;;5.88;;
66118;SDS011;52912;48.564;9.302;2022-07-10T05:17:50;9.38;;;6.25;;
66118;SDS011;52912;48.564;9.302;2022-07-10T05:20:18;10.65;;;6.10;;
66118;SDS011;52912;48.564;9.302;2022-07-10T05:22:43;9.88;;;6.20;;
66118;SDS011;52912;48.564;9.302;2022-07-10T05:25:09;12.65;;;6.30;;
66118;SDS011;52912;48.564;9.302;2022-07-10T05:27:34;10.38;;;5.97;;
66118;SDS011;52912;48.564;9.302;2022-07-10T05:30:00;7.47;;;5.68;;
66118;SDS011;52912;48.564;9.302;2022-07-10T05:32:25;8.43;;;5.82;;
66118;SDS011;52912;48.564;9.302;2022-07-10T05:34:51;10.52;;;5.93;;
66118;SDS011;52912;48.564;9.302;2022-07-10T05:37:18;8.25;;;6.00;;
66118;SDS011;52912;48.564;9.302;2022-07-10T05:39:43;6.07;;;5.20;;
66118;SDS011;52912;48.564;9.302;2022-07-10T05:42:09;7.32;;;4.97;;
66118;SDS011;52912;48.564;9.302;2022-07-10T05:44:34;7.03;;;5.15;;
66118;SDS011;52912;48.564;9.302;2022-07-10T05:47:00;10.32;;;5.07;;
66118;SDS011;52912;48.564;9.302;2022-07-10T05:49:25;9.35;;;5.00;;
66118;SDS011;52912;48.564;9.302;2022-07-10T05:51:51;9.27;;;4.82;;
66118;SDS011;52912;48.564;9.302;2022-07-10T05:54:18;7.63;;;4.95;;
66118;SDS011;52912;48.564;9.302;2022-07-10T05:56:43;8.20;;;4.50;;
66118;SDS011;52912;48.564;9.302;2022-07-10T05:59:09;7.45;;;4.40;;
66118;SDS011;52912;48.564;9.302;2022-07-10T06:01:34;7.53;;;4.40;;
66118;SDS011;52912;48.564;9.302;2022-07-10T06:04:00;7.40;;;4.10;;
66118;SDS011;52912;48.564;9.302;2022-07-10T06:06:26;10.35;;;3.78;;
66118;SDS011;52912;48.564;9.302;2022-07-10T06:08:51;8.38;;;3.08;;
66118;SDS011;52912;48.564;9.302;2022-07-10T06:11:18;6.95;;;2.92;;
66118;SDS011;52912;48.564;9.302;2022-07-10T06:13:44;5.28;;;2.83;;
66118;SDS011;52912;48.564;9.302;2022-07-10T06:16:13;6.00;;;2.80;;
66118;SDS011;52912;48.564;9.302;2022-07-10T06:18:38;6.93;;;3.10;;
66118;SDS011;52912;48.564;9.302;2022-07-10T06:21:04;9.07;;;3.10;;
66118;SDS011;52912;48.564;9.302;2022-07-10T06:23:29;8.00;;;2.65;;
66118;SDS011;52912;48.564;9.302;2022-07-10T06:25:55;5.90;;;2.78;;
66118;SDS011;52912;48.564;9.302;2022-07-10T06:28:22;5.28;;;2.60;;
66118;SDS011;52912;48.564;9.302;2022-07-10T06:30:47;4.95;;;2.60;;
66118;SDS011;52912;48.564;9.302;2022-07-10T06:33:13;6.53;;;3.13;;
66118;SDS011;52912;48.564;9.302;2022-07-10T06:35:39;6.30;;;2.63;;
66118;SDS011;52912;48.564;9.302;2022-07-10T06:38:04;5.20;;;2.90;;
66118;SDS011;52912;48.564;9.302;2022-07-10T06:40:30;5.22;;;2.80;;
66118;SDS011;52912;48.564;9.302;2022-07-10T06:43:01;4.78;;;2.65;;
66118;SDS011;52912;48.564;9.302;2022-07-10T06:45:28;4.88;;;2.15;;
66118;SDS011;52912;48.564;9.302;2022-07-10T06:47:54;6.88;;;2.53;;
66118;SDS011;52912;48.564;9.302;2022-07-10T06:50:20;5.25;;;2.25;;
66118;SDS011;52912;48.564;9.302;2022-07-10T06:52:45;6.65;;;2.40;;
66118;SDS011;52912;48.564;9.302;2022-07-10T06:55:11;4.78;;;2.47;;
66118;SDS011;52912;48.564;9.302;2022-07-10T06:57:37;5.00;;;2.42;;
66118;SDS011;52912;48.564;9.302;2022-07-10T07:00:03;3.88;;;2.22;;
66118;SDS011;52912;48.564;9.302;2022-07-10T07:02:31;4.57;;;2.10;;
66118;SDS011;52912;48.564;9.302;2022-07-10T07:04:57;5.65;;;2.20;;
66118;SDS011;52912;48.564;9.302;2022-07-10T07:07:22;6.47;;;2.35;;
66118;SDS011;52912;48.564;9.302;2022-07-10T07:09:50;4.57;;;1.90;;
66118;SDS011;52912;48.564;9.302;2022-07-10T07:12:16;4.50;;;1.80;;
66118;SDS011;52912;48.564;9.302;2022-07-10T07:14:41;8.88;;;1.90;;
66118;SDS011;52912;48.564;9.302;2022-07-10T07:17:07;4.88;;;1.90;;
66118;SDS011;52912;48.564;9.302;2022-07-10T07:19:34;7.82;;;2.33;;
66118;SDS011;52912;48.564;9.302;2022-07-10T07:21:59;5.82;;;1.98;;
66118;SDS011;52912;48.564;9.302;2022-07-10T07:24:25;2.47;;;1.60;;
66118;SDS011;52912;48.564;9.302;2022-07-10T07:26:51;2.63;;;1.85;;
66118;SDS011;52912;48.564;9.302;2022-07-10T07:29:16;6.57;;;2.05;;
66118;SDS011;52912;48.564;9.302;2022-07-10T07:31:45;4.05;;;1.92;;
66118;SDS011;52912;48.564;9.302;2022-07-10T07:34:10;5.13;;;1.98;;
66118;SDS011;52912;48.564;9.302;2022-07-10T07:36:37;4.93;;;2.20;;
66118;SDS011;52912;48.564;9.302;2022-07-10T07:39:03;4.70;;;1.90;;
66118;SDS011;52912;48.564;9.302;2022-07-10T07:41:29;5.90;;;2.10;;
66118;SDS011;52912;48.564;9.302;2022-07-10T07:43:55;6.53;;;2.15;;
66118;SDS011;52912;48.564;9.302;2022-07-10T07:46:20;3.78;;;2.15;;
66118;SDS011;52912;48.564;9.302;2022-07-10T07:48:46;3.95;;;2.10;;
66118;SDS011;52912;48.564;9.302;2022-07-10T07:51:12;5.45;;;2.10;;
66118;SDS011;52912;48.564;9.302;2022-07-10T07:53:39;6.22;;;2.40;;
66118;SDS011;52912;48.564;9.302;2022-07-10T07:56:05;5.03;;;2.42;;
66118;SDS011;52912;48.564;9.302;2022-07-10T07:58:31;5.57;;;2.33;;
66118;SDS011;52912;48.564;9.302;2022-07-10T08:00:56;7.60;;;2.70;;
66118;SDS011;52912;48.564;9.302;2022-07-10T08:03:23;5.03;;;2.30;;
66118;SDS011;52912;48.564;9.302;2022-07-10T08:05:48;4.50;;;2.03;;
66118;SDS011;52912;48.564;9.302;2022-07-10T08:08:14;3.70;;;1.85;;
66118;SDS011;52912;48.564;9.302;2022-07-10T08:10:44;3.03;;;2.08;;
66118;SDS011;52912;48.564;9.302;2022-07-10T08:13:09;7.07;;;2.25;;
66118;SDS011;52912;48.564;9.302;2022-07-10T08:15:35;4.85;;;1.90;;
66118;SDS011;52912;48.564;9.302;2022-07-10T08:18:01;4.40;;;2.58;;
66118;SDS011;52912;48.564;9.302;2022-07-10T08:20:27;5.10;;;2.15;;
66118;SDS011;52912;48.564;9.302;2022-07-10T08:22:52;8.07;;;2.15;;
66118;SDS011;52912;48.564;9.302;2022-07-10T08:25:18;6.57;;;2.38;;
66118;SDS011;52912;48.564;9.302;2022-07-10T08:27:46;4.55;;;2.17;;
66118;SDS011;52912;48.564;9.302;2022-07-10T08:30:12;3.95;;;2.20;;
66118;SDS011;52912;48.564;9.302;2022-07-10T08:32:38;5.43;;;2.33;;
66118;SDS011;52912;48.564;9.302;2022-07-10T08:35:04;7.75;;;2.45;;
66118;SDS011;52912;48.564;9.302;2022-07-10T08:37:36;3.80;;;2.00;;
66118;SDS011;52912;48.564;9.302;2022-07-10T08:40:02;7.50;;;2.40;;
66118;SDS011;52912;48.564;9.302;2022-07-10T08:42:34;7.85;;;2.38;;
66118;SDS011;52912;48.564;9.302;2022-07-10T08:45:01;5.57;;;2.08;;
66118;SDS011;52912;48.564;9.302;2022-07-10T08:47:27;4.20;;;2.10;;
66118;SDS011;52912;48.564;9.302;2022-07-10T08:52:24;6.37;;;2.33;;
66118;SDS011;52912;48.564;9.302;2022-07-10T08:54:56;6.35;;;1.80;;
66118;SDS011;52912;48.564;9.302;2022-07-10T08:57:23;4.72;;;2.22;;
66118;SDS011;52912;48.564;9.302;2022-07-10T08:59:50;3.88;;;2.17;;
66118;SDS011;52912;48.564;9.302;2022-07-10T09:02:17;4.55;;;2.00;;
66118;SDS011;52912;48.564;9.302;2022-07-10T09:04:43;3.78;;;1.83;;
66118;SDS011;52912;48.564;9.302;2022-07-10T09:07:08;3.85;;;1.92;;
66118;SDS011;52912;48.564;9.302;2022-07-10T09:09:37;3.85;;;2.30;;
66118;SDS011;52912;48.564;9.302;2022-07-10T09:12:18;5.90;;;1.88;;
66118;SDS011;52912;48.564;9.302;2022-07-10T09:14:43;3.50;;;1.70;;
66118;SDS011;52912;48.564;9.302;2022-07-10T09:17:09;4.35;;;1.90;;
66118;SDS011;52912;48.564;9.302;2022-07-10T09:19:36;4.45;;;1.92;;
66118;SDS011;52912;48.564;9.302;2022-07-10T09:22:03;3.97;;;2.05;;
66118;SDS011;52912;48.564;9.302;2022-07-10T09:24:35;6.43;;;2.17;;
66118;SDS011;52912;48.564;9.302;2022-07-10T09:27:01;6.70;;;2.10;;
66118;SDS011;52912;48.564;9.302;2022-07-10T09:29:28;3.90;;;1.95;;
66118;SDS011;52912;48.564;9.302;2022-07-10T09:31:57;4.22;;;2.00;;
66118;SDS011;52912;48.564;9.302;2022-07-10T09:34:36;6.97;;;1.92;;
66118;SDS011;52912;48.564;9.302;2022-07-10T09:37:19;4.25;;;1.80;;
66118;SDS011;52912;48.564;9.302;2022-07-10T09:39:51;4.47;;;2.10;;
66118;SDS011;52912;48.564;9.302;2022-07-10T09:42:24;5.78;;;1.90;;
66118;SDS011;52912;48.564;9.302;2022-07-10T09:44:58;6.20;;;2.30;;
66118;SDS011;52912;48.564;9.302;2022-07-10T09:47:39;5.38;;;2.00;;
66118;SDS011;52912;48.564;9.302;2022-07-10T09:50:07;2.85;;;1.67;;
66118;SDS011;52912;48.564;9.302;2022-07-10T09:52:45;4.70;;;2.30;;
66118;SDS011;52912;48.564;9.302;2022-07-10T09:55:11;5.13;;;1.90;;
66118;SDS011;52912;48.564;9.302;2022-07-10T09:57:41;3.05;;;1.73;;
66118;SDS011;52912;48.564;9.302;2022-07-10T10:00:11;5.10;;;1.90;;
66118;SDS011;52912;48.564;9.302;2022-07-10T10:02:36;3.70;;;1.73;;
66118;SDS011;52912;48.564;9.302;2022-07-10T10:05:04;4.47;;;1.63;;
66118;SDS011;52912;48.564;9.302;2022-07-10T10:07:32;5.13;;;1.70;;
66118;SDS011;52912;48.564;9.302;2022-07-10T10:10:02;6.85;;;2.13;;
66118;SDS011;52912;48.564;9.302;2022-07-10T10:12:34;3.22;;;1.70;;
66118;SDS011;52912;48.564;9.302;2022-07-10T10:15:04;1.92;;;1.40;;
66118;SDS011;52912;48.564;9.302;2022-07-10T10:17:35;5.03;;;2.00;;
66118;SDS011;52912;48.564;9.302;2022-07-10T10:20:01;4.85;;;1.80;;
66118;SDS011;52912;48.564;9.302;2022-07-10T10:22:30;5.70;;;1.77;;
66118;SDS011;52912;48.564;9.302;2022-07-10T10:24:58;5.05;;;1.70;;
66118;SDS011;52912;48.564;9.302;2022-07-10T10:27:26;3.65;;;1.65;;
66118;SDS011;52912;48.564;9.302;2022-07-10T10:29:53;5.30;;;1.80;;
66118;SDS011;52912;48.564;9.302;2022-07-10T10:32:32;4.57;;;1.90;;
66118;SDS011;52912;48.564;9.302;2022-07-10T10:34:57;3.47;;;1.83;;
66118;SDS011;52912;48.564;9.302;2022-07-10T10:37:35;5.00;;;1.90;;
66118;SDS011;52912;48.564;9.302;2022-07-10T10:40:02;3.70;;;1.70;;
66118;SDS011;52912;48.564;9.302;2022-07-10T10:42:32;5.53;;;2.00;;
66118;SDS011;52912;48.564;9.302;2022-07-10T10:47:57;2.40;;;1.35;;
66118;SDS011;52912;48.564;9.302;2022-07-10T10:50:35;2.78;;;1.60;;
66118;SDS011;52912;48.564;9.302;2022-07-10T10:53:03;3.15;;;1.70;;
66118;SDS011;52912;48.564;9.302;2022-07-10T10:55:28;4.18;;;1.52;;
66118;SDS011;52912;48.564;9.302;2022-07-10T10:58:11;4.65;;;1.75;;
66118;SDS011;52912;48.564;9.302;2022-07-10T11:00:39;3.70;;;1.60;;
66118;SDS011;52912;48.564;9.302;2022-07-10T11:03:15;4.60;;;1.67;;
66118;SDS011;52912;48.564;9.302;2022-07-10T11:05:46;1.85;;;1.20;;
66118;SDS011;52912;48.564;9.302;2022-07-10T11:08:16;5.00;;;1.60;;
66118;SDS011;52912;48.564;9.302;2022-07-10T11:11:00;5.13;;;1.73;;
66118;SDS011;52912;48.564;9.302;2022-07-10T11:13:27;4.07;;;1.65;;
66118;SDS011;52912;48.564;9.302;2022-07-10T11:15:56;4.40;;;1.75;;
66118;SDS011;52912;48.564;9.302;2022-07-10T11:18:22;5.55;;;1.80;;
66118;SDS011;52912;48.564;9.302;2022-07-10T11:20:48;4.35;;;1.60;;
66118;SDS011;52912;48.564;9.302;2022-07-10T11:26:21;5.18;;;2.17;;
66118;SDS011;52912;48.564;9.302;2022-07-10T11:28:54;3.45;;;1.60;;
66118;SDS011;52912;48.564;9.302;2022-07-10T11:31:25;4.97;;;1.88;;
66118;SDS011;52912;48.564;9.302;2022-07-10T11:33:53;4.35;;;1.80;;
66118;SDS011;52912;48.564;9.302;2022-07-10T11:36:20;3.47;;;1.77;;
66118;SDS011;52912;48.564;9.302;2022-07-10T11:38:47;8.00;;;1.63;;
66118;SDS011;52912;48.564;9.302;2022-07-10T11:41:20;6.03;;;1.58;;
66118;SDS011;52912;48.564;9.302;2022-07-10T11:43:47;3.78;;;1.70;;
66118;SDS011;52912;48.564;9.302;2022-07-10T11:46:16;4.22;;;1.65;;
66118;SDS011;52912;48.564;9.302;2022-07-10T11:48:43;4.00;;;1.88;;
66118;SDS011;52912;48.564;9.302;2022-07-10T11:51:16;4.00;;;1.40;;
66118;SDS011;52912;48.564;9.302;2022-07-10T11:53:42;2.88;;;1.58;;
66118;SDS011;52912;48.564;9.302;2022-07-10T11:56:19;3.65;;;1.35;;
66118;SDS011;52912;48.564;9.302;2022-07-10T11:58:52;2.25;;;1.50;;
66118;SDS011;52912;48.564;9.302;2022-07-10T12:01:19;3.88;;;1.60;;
66118;SDS011;52912;48.564;9.302;2022-07-10T12:03:44;5.78;;;1.50;;
66118;SDS011;52912;48.564;9.302;2022-07-10T12:06:17;3.78;;;1.60;;
66118;SDS011;52912;48.564;9.302;2022-07-10T12:08:44;5.22;;;1.40;;
66118;SDS011;52912;48.564;9.302;2022-07-10T12:11:14;3.90;;;1.60;;
66118;SDS011;52912;48.564;9.302;2022-07-10T12:13:40;3.75;;;1.50;;
66118;SDS011;52912;48.564;9.302;2022-07-10T12:16:06;6.18;;;1.58;;
66118;SDS011;52912;48.564;9.302;2022-07-10T12:18:32;4.68;;;1.50;;
66118;SDS011;52912;48.564;9.302;2022-07-10T12:20:57;2.95;;;1.52;;
66118;SDS011;52912;48.564;9.302;2022-07-10T12:23:23;3.40;;;1.50;;
66118;SDS011;52912;48.564;9.302;2022-07-10T12:25:52;5.80;;;1.70;;
66118;SDS011;52912;48.564;9.302;2022-07-10T12:28:20;5.75;;;1.58;;
66118;SDS011;52912;48.564;9.302;2022-07-10T12:30:46;3.97;;;1.60;;
66118;SDS011;52912;48.564;9.302;2022-07-10T12:33:14;5.67;;;1.90;;
66118;SDS011;52912;48.564;9.302;2022-07-10T12:35:50;5.50;;;1.58;;
66118;SDS011;52912;48.564;9.302;2022-07-10T12:38:18;4.47;;;1.50;;
66118;SDS011;52912;48.564;9.302;2022-07-10T12:40:44;2.70;;;1.40;;
66118;SDS011;52912;48.564;9.302;2022-07-10T12:43:10;3.15;;;1.42;;
66118;SDS011;52912;48.564;9.302;2022-07-10T12:45:37;6.38;;;1.60;;
66118;SDS011;52912;48.564;9.302;2022-07-10T12:48:04;2.67;;;1.30;;
66118;SDS011;52912;48.564;9.302;2022-07-10T12:50:30;4.55;;;1.60;;
66118;SDS011;52912;48.564;9.302;2022-07-10T12:53:08;2.45;;;1.17;;
66118;SDS011;52912;48.564;9.302;2022-07-10T12:55:36;3.28;;;1.20;;
66118;SDS011;52912;48.564;9.302;2022-07-10T12:58:06;1.83;;;1.30;;
66118;SDS011;52912;48.564;9.302;2022-07-10T13:00:33;5.18;;;1.35;;
66118;SDS011;52912;48.564;9.302;2022-07-10T13:03:01;4.70;;;1.15;;
66118;SDS011;52912;48.564;9.302;2022-07-10T13:05:30;5.38;;;1.40;;
66118;SDS011;52912;48.564;9.302;2022-07-10T13:08:05;5.03;;;1.50;;
66118;SDS011;52912;48.564;9.302;2022-07-10T13:10:32;4.00;;;1.73;;
66118;SDS011;52912;48.564;9.302;2022-07-10T13:12:58;2.80;;;1.25;;
66118;SDS011;52912;48.564;9.302;2022-07-10T13:15:23;3.10;;;1.45;;
66118;SDS011;52912;48.564;9.302;2022-07-10T13:17:51;3.83;;;1.50;;
66118;SDS011;52912;48.564;9.302;2022-07-10T13:20:19;3.92;;;1.50;;
66118;SDS011;52912;48.564;9.302;2022-07-10T13:22:44;1.77;;;1.20;;
66118;SDS011;52912;48.564;9.302;2022-07-10T13:25:10;3.05;;;1.10;;
66118;SDS011;52912;48.564;9.302;2022-07-10T13:27:37;3.20;;;1.20;;
66118;SDS011;52912;48.564;9.302;2022-07-10T13:30:03;3.33;;;1.30;;
66118;SDS011;52912;48.564;9.302;2022-07-10T13:32:29;4.03;;;1.20;;
66118;SDS011;52912;48.564;9.302;2022-07-10T13:34:55;1.15;;;1.00;;
66118;SDS011;52912;48.564;9.302;2022-07-10T13:37:24;3.25;;;1.27;;
66118;SDS011;52912;48.564;9.302;2022-07-10T13:39:50;3.17;;;1.38;;
66118;SDS011;52912;48.564;9.302;2022-07-10T13:42:16;3.35;;;1.40;;
66118;SDS011;52912;48.564;9.302;2022-07-10T13:44:42;4.63;;;1.48;;
66118;SDS011;52912;48.564;9.302;2022-07-10T13:47:09;2.30;;;1.00;;
66118;SDS011;52912;48.564;9.302;2022-07-10T13:49:34;1.88;;;1.00;;
66118;SDS011;52912;48.564;9.302;2022-07-10T13:52:00;4.97;;;1.10;;
66118;SDS011;52912;48.564;9.302;2022-07-10T13:54:30;2.53;;;1.30;;
66118;SDS011;52912;48.564;9.302;2022-07-10T13:57:00;2.85;;;1.50;;
66118;SDS011;52912;48.564;9.302;2022-07-10T13:59:29;3.10;;;1.20;;
66118;SDS011;52912;48.564;9.302;2022-07-10T14:01:54;2.92;;;1.20;;
66118;SDS011;52912;48.564;9.302;2022-07-10T14:04:20;4.68;;;1.23;;
66118;SDS011;52912;48.564;9.302;2022-07-10T14:06:45;3.08;;;1.08;;
66118;SDS011;52912;48.564;9.302;2022-07-10T14:09:13;2.50;;;0.90;;
66118;SDS011;52912;48.564;9.302;2022-07-10T14:11:40;2.03;;;1.00;;
66118;SDS011;52912;48.564;9.302;2022-07-10T14:14:05;3.40;;;1.30;;
66118;SDS011;52912;48.564;9.302;2022-07-10T14:16:32;2.28;;;1.10;;
66118;SDS011;52912;48.564;9.302;2022-07-10T14:19:04;2.85;;;1.08;;
66118;SDS011;52912;48.564;9.302;2022-07-10T14:21:30;3.85;;;1.20;;
66118;SDS011;52912;48.564;9.302;2022-07-10T14:23:55;4.07;;;1.20;;
66118;SDS011;52912;48.564;9.302;2022-07-10T14:26:24;3.40;;;1.10;;
66118;SDS011;52912;48.564;9.302;2022-07-10T14:28:51;3.88;;;1.10;;
66118;SDS011;52912;48.564;9.302;2022-07-10T14:31:17;3.30;;;0.85;;
66118;SDS011;52912;48.564;9.302;2022-07-10T14:33:43;4.55;;;1.05;;
66118;SDS011;52912;48.564;9.302;2022-07-10T14:36:17;3.90;;;1.30;;
66118;SDS011;52912;48.564;9.302;2022-07-10T14:38:43;3.08;;;1.30;;
66118;SDS011;52912;48.564;9.302;2022-07-10T14:41:08;3.42;;;1.30;;
66118;SDS011;52912;48.564;9.302;2022-07-10T14:43:34;2.75;;;1.02;;
66118;SDS011;52912;48.564;9.302;2022-07-10T14:46:05;4.20;;;1.40;;
66118;SDS011;52912;48.564;9.302;2022-07-10T14:48:32;5.22;;;1.70;;
66118;SDS011;52912;48.564;9.302;2022-07-10T14:50:58;1.57;;;1.07;;
66118;SDS011;52912;48.564;9.302;2022-07-10T14:53:24;5.28;;;1.20;;
66118;SDS011;52912;48.564;9.302;2022-07-10T14:55:50;4.72;;;1.00;;